createdAt,value
2019-03-28T00:00:40.418Z,2.60
2019-03-28T00:03:08.831Z,2.23
2019-03-28T00:05:37.235Z,2.50
2019-03-28T00:08:05.651Z,3.20
2019-03-28T00:10:34.056Z,2.17
2019-03-28T00:13:02.468Z,2.20
2019-03-28T00:15:30.973Z,2.10
2019-03-28T00:17:59.391Z,2.27
2019-03-28T00:20:27.790Z,2.20
2019-03-28T00:23:12.905Z,2.30
2019-03-28T00:25:41.309Z,2.20
2019-03-28T00:28:09.732Z,2.30
2019-03-28T00:30:38.128Z,2.30
2019-03-28T00:33:06.542Z,2.90
2019-03-28T00:35:35.001Z,2.40
2019-03-28T00:38:03.424Z,2.17
2019-03-28T00:40:31.816Z,2.20
2019-03-28T00:43:00.361Z,2.10
2019-03-28T00:45:29.038Z,2.30
2019-03-28T00:47:57.467Z,2.20
2019-03-28T00:50:25.861Z,2.00
2019-03-28T00:52:54.270Z,2.10
2019-03-28T00:55:22.680Z,1.90
2019-03-28T00:57:51.079Z,1.73
2019-03-28T01:00:19.972Z,2.30
2019-03-28T01:02:48.362Z,2.40
2019-03-28T01:05:17.154Z,2.80
2019-03-28T01:07:45.596Z,2.53
2019-03-28T01:10:14.025Z,2.30
2019-03-28T01:12:42.431Z,2.03
2019-03-28T01:15:10.849Z,2.03
2019-03-28T01:17:39.334Z,2.40
2019-03-28T01:20:07.687Z,2.53
2019-03-28T01:22:36.106Z,2.50
2019-03-28T01:25:05.203Z,2.23
2019-03-28T01:27:33.700Z,2.50
2019-03-28T01:30:02.135Z,2.37
2019-03-28T01:32:30.547Z,1.90
2019-03-28T01:34:59.168Z,2.30
2019-03-28T01:37:29.226Z,2.30
2019-03-28T01:39:57.772Z,2.37
2019-03-28T01:42:26.215Z,2.10
2019-03-28T01:44:54.669Z,2.10
2019-03-28T01:47:23.143Z,2.10
2019-03-28T01:49:51.698Z,2.40
2019-03-28T01:52:20.154Z,2.17
2019-03-28T01:54:48.569Z,2.03
2019-03-28T01:57:17.057Z,2.20
2019-03-28T01:59:46.311Z,2.20
2019-03-28T02:02:14.763Z,2.30
2019-03-28T02:04:43.172Z,2.30
2019-03-28T02:07:11.575Z,2.20
2019-03-28T02:09:39.993Z,2.10
2019-03-28T02:12:08.393Z,2.60
2019-03-28T02:14:36.822Z,2.20
2019-03-28T02:17:05.231Z,2.33
2019-03-28T02:19:33.669Z,2.63
2019-03-28T02:22:02.060Z,2.80
2019-03-28T02:24:30.472Z,2.50
2019-03-28T02:26:59.313Z,2.30
2019-03-28T02:29:27.742Z,2.93
2019-03-28T02:31:56.153Z,3.30
2019-03-28T02:34:24.548Z,2.50
2019-03-28T02:36:52.962Z,2.33
2019-03-28T02:39:21.365Z,2.00
2019-03-28T02:41:50.017Z,2.30
2019-03-28T02:44:18.495Z,2.10
2019-03-28T02:46:46.930Z,1.80
2019-03-28T02:49:15.339Z,2.37
2019-03-28T02:51:43.788Z,2.47
2019-03-28T02:54:12.199Z,2.10
2019-03-28T02:56:41.723Z,2.10
2019-03-28T02:59:10.441Z,2.13
2019-03-28T03:01:38.830Z,2.33
2019-03-28T03:04:07.220Z,2.20
2019-03-28T03:06:35.631Z,2.17
2019-03-28T03:09:06.133Z,2.10
2019-03-28T03:11:35.629Z,2.17
2019-03-28T03:14:04.365Z,2.20
2019-03-28T03:16:32.770Z,2.20
2019-03-28T03:19:01.177Z,1.80
2019-03-28T03:21:29.602Z,2.17
2019-03-28T03:23:57.980Z,2.03
2019-03-28T03:26:26.428Z,2.53
2019-03-28T03:28:54.848Z,2.20
2019-03-28T03:31:24.882Z,2.17
2019-03-28T03:33:53.448Z,2.23
2019-03-28T03:36:21.867Z,2.00
2019-03-28T03:38:50.260Z,2.40
2019-03-28T03:41:18.690Z,2.40
2019-03-28T03:43:47.180Z,2.40
2019-03-28T03:46:15.595Z,2.20
2019-03-28T03:48:43.995Z,2.37
2019-03-28T03:51:12.426Z,2.23
2019-03-28T03:53:40.818Z,2.40
2019-03-28T03:56:09.236Z,2.20
2019-03-28T03:58:37.628Z,2.90
2019-03-28T04:01:07.067Z,2.43
2019-03-28T04:03:35.477Z,2.20
2019-03-28T04:06:03.879Z,2.50
2019-03-28T04:08:32.280Z,2.47
2019-03-28T04:11:00.677Z,2.30
2019-03-28T04:13:29.204Z,2.30
2019-03-28T04:15:57.600Z,2.40
2019-03-28T04:18:26.016Z,2.50
2019-03-28T04:20:54.422Z,2.20
2019-03-28T04:23:22.832Z,2.57
2019-03-28T04:25:51.231Z,2.50
2019-03-28T04:28:31.393Z,2.37
2019-03-28T04:30:49.700Z,2.40
2019-03-28T04:33:18.111Z,2.60
2019-03-28T04:35:46.623Z,2.97
2019-03-28T04:38:15.138Z,2.27
2019-03-28T04:40:43.538Z,2.17
2019-03-28T04:43:11.956Z,2.37
2019-03-28T04:45:40.363Z,2.30
2019-03-28T04:48:08.778Z,2.30
2019-03-28T04:50:37.205Z,2.40
2019-03-28T04:53:05.623Z,2.67
2019-03-28T04:55:34.027Z,2.30
2019-03-28T04:58:02.439Z,2.37
2019-03-28T05:00:31.232Z,2.37
2019-03-28T05:02:59.642Z,2.40
2019-03-28T05:05:28.036Z,2.37
2019-03-28T05:07:56.451Z,2.33
2019-03-28T05:10:24.863Z,2.30
2019-03-28T05:12:53.279Z,2.77
2019-03-28T05:15:21.683Z,2.87
2019-03-28T05:17:50.115Z,2.10
2019-03-28T05:20:18.518Z,2.30
2019-03-28T05:22:47.001Z,2.40
2019-03-28T05:25:15.409Z,2.93
2019-03-28T05:27:43.827Z,2.73
2019-03-28T05:30:12.231Z,2.50
2019-03-28T05:32:41.773Z,2.43
2019-03-28T05:35:10.627Z,2.50
2019-03-28T05:37:39.317Z,2.63
2019-03-28T05:40:08.221Z,2.53
2019-03-28T05:42:36.649Z,2.50
2019-03-28T05:45:06.088Z,2.47
2019-03-28T05:47:34.512Z,2.40
2019-03-28T05:50:02.924Z,2.33
2019-03-28T05:52:31.319Z,2.73
2019-03-28T05:54:59.744Z,2.70
2019-03-28T05:57:28.200Z,3.00
2019-03-28T05:59:56.564Z,2.60
2019-03-28T06:02:28.824Z,2.23
2019-03-28T06:04:57.454Z,2.40
2019-03-28T06:07:25.870Z,2.60
2019-03-28T06:09:54.300Z,2.50
2019-03-28T06:12:22.818Z,3.00
2019-03-28T06:14:51.368Z,2.67
2019-03-28T06:17:19.760Z,3.00
2019-03-28T06:19:48.184Z,3.17
2019-03-28T06:22:16.580Z,3.00
2019-03-28T06:24:45.004Z,3.27
2019-03-28T06:27:13.510Z,4.73
2019-03-28T06:29:41.930Z,4.13
2019-03-28T06:32:10.339Z,5.27
2019-03-28T06:34:38.754Z,4.20
2019-03-28T06:37:07.154Z,4.00
2019-03-28T06:39:36.564Z,3.47
2019-03-28T06:42:05.169Z,3.80
2019-03-28T06:44:33.638Z,3.80
2019-03-28T06:47:02.041Z,4.20
2019-03-28T06:49:30.458Z,4.03
2019-03-28T06:51:58.868Z,3.80
2019-03-28T06:54:27.268Z,4.33
2019-03-28T06:56:55.683Z,4.70
2019-03-28T06:59:36.282Z,3.73
2019-03-28T07:01:54.141Z,4.20
2019-03-28T07:04:22.557Z,3.93
2019-03-28T07:06:50.963Z,5.13
2019-03-28T07:09:19.361Z,8.27
2019-03-28T07:11:47.780Z,8.37
2019-03-28T07:14:16.337Z,9.13
2019-03-28T07:16:44.760Z,8.63
2019-03-28T07:19:13.153Z,9.47
2019-03-28T07:21:41.568Z,8.73
2019-03-28T07:24:09.967Z,8.60
2019-03-28T07:26:38.384Z,9.60
2019-03-28T07:29:06.779Z,9.47
2019-03-28T07:31:35.633Z,9.50
2019-03-28T07:34:04.191Z,9.40
2019-03-28T07:36:32.603Z,9.13
2019-03-28T07:39:01.005Z,9.07
2019-03-28T07:41:29.409Z,9.27
2019-03-28T07:43:57.817Z,8.90
2019-03-28T07:46:26.225Z,8.33
2019-03-28T07:48:54.641Z,9.43
2019-03-28T07:51:23.041Z,8.50
2019-03-28T07:53:51.451Z,8.10
2019-03-28T07:56:19.858Z,8.63
2019-03-28T07:58:48.282Z,10.17
2019-03-28T08:01:18.254Z,9.13
2019-03-28T08:03:46.805Z,9.27
2019-03-28T08:06:15.217Z,9.57
2019-03-28T08:08:44.243Z,8.63
2019-03-28T08:11:12.756Z,8.97
2019-03-28T08:13:41.422Z,8.80
2019-03-28T08:16:09.831Z,7.77
2019-03-28T08:18:38.253Z,8.83
2019-03-28T08:21:06.651Z,7.80
2019-03-28T08:23:35.548Z,8.40
2019-03-28T08:26:03.964Z,8.33
2019-03-28T08:28:32.378Z,8.43
2019-03-28T08:31:00.780Z,8.77
2019-03-28T08:33:29.201Z,7.87
2019-03-28T08:35:57.603Z,8.37
2019-03-28T08:38:26.392Z,8.63
2019-03-28T08:40:54.794Z,7.97
2019-03-28T08:43:23.223Z,8.43
2019-03-28T08:45:51.629Z,7.40
2019-03-28T08:48:20.021Z,7.27
2019-03-28T08:50:48.463Z,7.50
2019-03-28T08:53:16.911Z,6.97
2019-03-28T08:55:45.321Z,8.00
2019-03-28T08:58:13.736Z,8.23
2019-03-28T09:00:51.592Z,7.97
2019-03-28T09:03:12.275Z,9.07
2019-03-28T09:05:40.698Z,7.77
2019-03-28T09:08:09.093Z,8.57
2019-03-28T09:10:37.519Z,7.90
2019-03-28T09:13:06.098Z,9.33
2019-03-28T09:15:43.479Z,8.93
2019-03-28T09:18:05.237Z,8.80
2019-03-28T09:20:33.651Z,8.43
2019-03-28T09:23:02.057Z,8.67
2019-03-28T09:25:30.473Z,8.87
2019-03-28T09:27:58.885Z,8.17
2019-03-28T09:30:47.565Z,8.23
2019-03-28T09:33:06.009Z,8.27
2019-03-28T09:35:34.440Z,8.37
2019-03-28T09:38:02.969Z,8.00
2019-03-28T09:40:31.389Z,7.20
2019-03-28T09:42:59.784Z,8.00
2019-03-28T09:45:28.459Z,8.97
2019-03-28T09:47:56.857Z,7.57
2019-03-28T09:50:25.271Z,7.83
2019-03-28T09:52:53.845Z,9.60
2019-03-28T09:55:22.242Z,7.37
2019-03-28T09:57:50.661Z,6.17
2019-03-28T10:00:19.229Z,6.57
2019-03-28T10:02:47.755Z,6.67
2019-03-28T10:05:16.170Z,6.57
2019-03-28T10:07:44.588Z,7.33
2019-03-28T10:10:12.998Z,6.73
2019-03-28T10:12:43.864Z,8.43
2019-03-28T10:15:11.459Z,8.67
2019-03-28T10:17:42.481Z,8.97
2019-03-28T10:20:10.206Z,10.70
2019-03-28T10:22:38.642Z,9.83
2019-03-28T10:25:07.038Z,10.30
2019-03-28T10:27:35.468Z,11.30
2019-03-28T10:30:08.684Z,10.57
2019-03-28T10:32:37.106Z,12.10
2019-03-28T10:35:07.151Z,12.30
2019-03-28T10:37:35.721Z,10.90
2019-03-28T10:40:07.061Z,10.73
2019-03-28T10:42:35.476Z,10.83
2019-03-28T10:45:06.209Z,10.40
2019-03-28T10:47:34.718Z,12.43
2019-03-28T10:50:04.184Z,12.67
2019-03-28T10:52:33.406Z,11.03
2019-03-28T10:55:01.827Z,10.57
2019-03-28T10:57:31.843Z,9.83
2019-03-28T11:00:00.323Z,10.70
2019-03-28T11:02:29.117Z,10.53
2019-03-28T11:04:57.519Z,10.57
2019-03-28T11:07:25.917Z,9.73
2019-03-28T11:09:54.610Z,10.53
2019-03-28T11:12:23.028Z,11.83
2019-03-28T11:14:51.442Z,10.30
2019-03-28T11:17:19.853Z,10.60
2019-03-28T11:19:48.282Z,11.60
2019-03-28T11:22:16.686Z,10.30
2019-03-28T11:24:46.480Z,9.83
2019-03-28T11:27:15.017Z,10.17
2019-03-28T11:29:43.446Z,11.10
2019-03-28T11:32:11.846Z,10.80
2019-03-28T11:34:40.814Z,9.63
2019-03-28T11:37:14.930Z,10.63
2019-03-28T11:39:39.368Z,10.00
2019-03-28T11:42:07.772Z,10.50
2019-03-28T11:44:36.204Z,10.87
2019-03-28T11:47:04.580Z,10.33
2019-03-28T11:49:33.005Z,10.50
2019-03-28T11:52:01.404Z,9.57
2019-03-28T11:54:29.824Z,10.17
2019-03-28T11:56:58.234Z,10.13
2019-03-28T11:59:26.649Z,9.80
2019-03-28T12:02:20.298Z,9.33
2019-03-28T12:04:44.576Z,8.33
2019-03-28T12:07:12.982Z,8.60
2019-03-28T12:09:41.463Z,8.63
2019-03-28T12:12:09.862Z,8.27
2019-03-28T12:14:38.280Z,8.87
2019-03-28T12:17:06.680Z,8.90
2019-03-28T12:19:35.098Z,8.13
2019-03-28T12:22:03.493Z,8.30
2019-03-28T12:24:31.916Z,8.33
2019-03-28T12:27:00.330Z,8.57
2019-03-28T12:29:28.741Z,8.17
2019-03-28T12:31:57.147Z,8.90
2019-03-28T12:34:25.560Z,8.47
2019-03-28T12:36:53.988Z,9.27
2019-03-28T12:39:22.394Z,8.83
2019-03-28T12:41:50.822Z,8.57
2019-03-28T12:44:19.324Z,9.57
2019-03-28T12:47:07.176Z,8.57
2019-03-28T12:49:35.588Z,8.63
2019-03-28T12:52:04.008Z,8.60
2019-03-28T12:54:32.410Z,8.63
2019-03-28T12:57:00.837Z,9.30
2019-03-28T12:59:29.240Z,8.13
2019-03-28T13:01:57.665Z,9.13
2019-03-28T13:04:26.063Z,9.07
2019-03-28T13:06:54.488Z,7.97
2019-03-28T13:09:22.894Z,8.00
2019-03-28T13:11:51.300Z,8.30
2019-03-28T13:14:19.716Z,7.73
2019-03-28T13:16:48.120Z,8.17
2019-03-28T13:19:16.552Z,7.53
2019-03-28T13:21:44.958Z,7.27
2019-03-28T13:24:13.408Z,7.60
2019-03-28T13:26:41.768Z,7.30
2019-03-28T13:29:10.228Z,7.40
2019-03-28T13:31:38.543Z,7.67
2019-03-28T13:34:06.916Z,7.87
2019-03-28T13:36:35.187Z,6.83
2019-03-28T13:39:03.628Z,6.67
2019-03-28T13:41:31.973Z,7.37
2019-03-28T13:44:00.269Z,7.47
2019-03-28T13:46:28.531Z,7.37
2019-03-28T13:48:56.825Z,6.90
2019-03-28T13:51:25.110Z,7.07
2019-03-28T13:53:53.928Z,7.80
2019-03-28T13:56:22.894Z,7.83
2019-03-28T13:58:51.519Z,9.27
2019-03-28T14:01:19.828Z,8.13
2019-03-28T14:03:48.128Z,8.53
2019-03-28T14:06:16.478Z,9.10
2019-03-28T14:08:44.856Z,8.27
2019-03-28T14:11:13.762Z,8.30
2019-03-28T14:13:42.049Z,9.37
2019-03-28T14:16:10.511Z,8.90
2019-03-28T14:18:38.870Z,8.80
2019-03-28T14:21:07.210Z,9.47
2019-03-28T14:23:35.479Z,8.77
2019-03-28T14:26:03.771Z,9.10
2019-03-28T14:28:32.050Z,8.90
2019-03-28T14:31:01.001Z,8.70
2019-03-28T14:33:29.395Z,9.07
2019-03-28T14:35:57.696Z,8.23
2019-03-28T14:38:25.972Z,9.10
2019-03-28T14:40:54.604Z,11.53
2019-03-28T14:43:23.143Z,10.03
2019-03-28T14:45:51.436Z,10.73
2019-03-28T14:48:19.718Z,13.70
2019-03-28T14:50:48.019Z,14.50
2019-03-28T14:53:16.377Z,11.97
2019-03-28T14:55:44.682Z,11.90
2019-03-28T14:58:12.966Z,11.47
2019-03-28T15:00:47.852Z,11.67
2019-03-28T15:03:25.540Z,11.40
2019-03-28T15:05:46.436Z,13.43
2019-03-28T15:08:14.739Z,10.40
2019-03-28T15:10:43.019Z,9.80
2019-03-28T15:13:11.382Z,10.27
2019-03-28T15:15:39.668Z,10.80
2019-03-28T15:18:07.972Z,13.17
2019-03-28T15:20:36.250Z,10.73
2019-03-28T15:23:04.564Z,12.50
2019-03-28T15:25:32.926Z,13.53
2019-03-28T15:28:01.299Z,13.33
2019-03-28T15:30:29.892Z,14.43
2019-03-28T15:32:58.355Z,12.67
2019-03-28T15:35:26.647Z,12.07
2019-03-28T15:37:55.023Z,9.67
2019-03-28T15:40:23.306Z,9.53
2019-03-28T15:42:51.587Z,7.37
2019-03-28T15:45:19.879Z,7.17
2019-03-28T15:47:48.150Z,6.37
2019-03-28T15:50:16.441Z,6.37
2019-03-28T15:52:44.719Z,5.50
2019-03-28T15:55:14.657Z,6.57
2019-03-28T15:57:43.015Z,6.00
2019-03-28T16:00:11.386Z,5.40
2019-03-28T16:02:39.800Z,6.97
2019-03-28T16:05:08.113Z,6.30
2019-03-28T16:07:36.403Z,5.47
2019-03-28T16:10:06.688Z,6.00
2019-03-28T16:12:34.983Z,5.37
2019-03-28T16:15:03.840Z,4.83
2019-03-28T16:17:32.205Z,4.87
2019-03-28T16:20:00.481Z,4.50
2019-03-28T16:22:28.779Z,4.50
2019-03-28T16:24:57.058Z,4.07
2019-03-28T16:27:25.365Z,5.07
2019-03-28T16:29:54.468Z,4.20
2019-03-28T16:32:22.921Z,4.70
2019-03-28T16:34:51.204Z,6.13
2019-03-28T16:37:19.621Z,4.43
2019-03-28T16:39:49.965Z,4.67
2019-03-28T16:42:17.915Z,4.27
2019-03-28T16:44:46.212Z,4.33
2019-03-28T16:47:14.486Z,4.23
2019-03-28T16:49:42.954Z,5.37
2019-03-28T16:52:12.929Z,5.13
2019-03-28T16:54:41.378Z,4.53
2019-03-28T16:57:09.934Z,3.70
2019-03-28T16:59:38.952Z,3.83
2019-03-28T17:02:07.303Z,4.03
2019-03-28T17:04:35.663Z,4.37
2019-03-28T17:07:03.927Z,3.80
2019-03-28T17:09:32.248Z,3.97
2019-03-28T17:12:00.519Z,3.93
2019-03-28T17:14:28.788Z,3.23
2019-03-28T17:16:57.073Z,3.40
2019-03-28T17:19:25.792Z,3.97
2019-03-28T17:21:54.121Z,3.77
2019-03-28T17:24:22.392Z,3.63
2019-03-28T17:26:50.679Z,3.00
2019-03-28T17:29:18.956Z,3.10
2019-03-28T17:31:47.331Z,4.40
2019-03-28T17:34:15.606Z,4.53
2019-03-28T17:36:43.905Z,6.37
2019-03-28T17:39:12.181Z,6.20
2019-03-28T17:41:40.465Z,5.77
2019-03-28T17:44:08.855Z,6.83
2019-03-28T17:46:37.206Z,6.57
2019-03-28T17:49:05.667Z,9.03
2019-03-28T17:51:33.955Z,7.33
2019-03-28T17:54:03.160Z,6.93
2019-03-28T17:56:31.587Z,5.90
2019-03-28T17:58:59.894Z,7.53
2019-03-28T18:01:28.185Z,6.00
2019-03-28T18:03:56.565Z,5.53
2019-03-28T18:06:24.843Z,4.63
2019-03-28T18:08:53.159Z,5.13
2019-03-28T18:11:21.850Z,5.00
2019-03-28T18:13:50.669Z,4.03
2019-03-28T18:16:18.983Z,4.97
2019-03-28T18:18:47.458Z,5.73
2019-03-28T18:21:15.791Z,5.67
2019-03-28T18:23:44.471Z,5.13
2019-03-28T18:26:12.745Z,4.83
2019-03-28T18:28:41.116Z,6.13
2019-03-28T18:31:09.469Z,7.03
2019-03-28T18:33:37.745Z,4.27
2019-03-28T18:36:06.041Z,5.17
2019-03-28T18:38:34.386Z,5.80
2019-03-28T18:41:02.718Z,5.43
2019-03-28T18:43:31.073Z,4.03
2019-03-28T18:45:59.948Z,7.10
2019-03-28T18:48:35.811Z,6.00
2019-03-28T18:50:58.544Z,4.47
2019-03-28T18:53:26.992Z,5.30
2019-03-28T18:55:55.858Z,6.00
2019-03-28T18:58:24.487Z,5.87
2019-03-28T19:00:52.880Z,4.63
2019-03-28T19:03:21.268Z,4.43
2019-03-28T19:05:49.614Z,5.90
2019-03-28T19:08:17.994Z,4.13
2019-03-28T19:10:46.340Z,4.97
2019-03-28T19:13:14.646Z,3.80
2019-03-28T19:15:42.943Z,4.53
2019-03-28T19:18:12.856Z,4.23
2019-03-28T19:20:41.171Z,3.83
2019-03-28T19:23:09.455Z,4.40
2019-03-28T19:25:37.830Z,3.83
2019-03-28T19:28:07.679Z,3.90
2019-03-28T19:30:36.422Z,6.73
2019-03-28T19:33:06.754Z,4.70
2019-03-28T19:35:35.000Z,3.70
2019-03-28T19:38:04.336Z,5.33
2019-03-28T19:40:32.902Z,3.47
2019-03-28T19:43:01.416Z,4.00
2019-03-28T19:45:35.840Z,6.43
2019-03-28T19:48:04.048Z,6.27
2019-03-28T19:50:32.423Z,4.77
2019-03-28T19:53:00.691Z,4.70
2019-03-28T19:55:29.035Z,5.67
2019-03-28T19:57:57.391Z,4.63
2019-03-28T20:00:25.727Z,4.70
2019-03-28T20:02:54.034Z,4.03
2019-03-28T20:05:22.382Z,6.07
2019-03-28T20:07:50.683Z,4.23
2019-03-28T20:10:19.037Z,4.33
2019-03-28T20:12:47.390Z,4.90
2019-03-28T20:15:15.676Z,3.37
2019-03-28T20:17:44.073Z,4.03
2019-03-28T20:20:12.590Z,3.20
2019-03-28T20:22:40.874Z,4.40
2019-03-28T20:25:09.231Z,3.90
2019-03-28T20:27:37.585Z,3.70
2019-03-28T20:30:08.689Z,3.70
2019-03-28T20:32:37.797Z,4.00
2019-03-28T20:35:06.313Z,4.47
2019-03-28T20:37:34.602Z,3.77
2019-03-28T20:40:02.983Z,3.90
2019-03-28T20:42:31.267Z,4.93
2019-03-28T20:45:20.182Z,3.93
2019-03-28T20:47:48.534Z,3.63
2019-03-28T20:50:16.839Z,3.00
2019-03-28T20:52:45.111Z,3.53
2019-03-28T20:55:13.413Z,3.73
2019-03-28T20:57:41.691Z,3.27
2019-03-28T21:00:10.069Z,4.20
2019-03-28T21:02:38.337Z,3.60
2019-03-28T21:05:06.982Z,4.30
2019-03-28T21:07:37.214Z,4.13
2019-03-28T21:10:09.705Z,3.30
2019-03-28T21:12:38.008Z,5.33
2019-03-28T21:15:07.557Z,3.47
2019-03-28T21:17:35.835Z,3.07
2019-03-28T21:20:06.508Z,4.10
2019-03-28T21:22:34.884Z,3.50
2019-03-28T21:25:03.682Z,3.80
2019-03-28T21:27:32.940Z,2.80
2019-03-28T21:30:01.354Z,3.73
2019-03-28T21:32:29.628Z,2.83
2019-03-28T21:34:57.987Z,3.80
2019-03-28T21:37:26.262Z,3.13
2019-03-28T21:39:54.548Z,2.43
2019-03-28T21:42:22.828Z,2.90
2019-03-28T21:44:51.118Z,2.60
2019-03-28T21:47:19.394Z,4.90
2019-03-28T21:49:47.684Z,4.73
2019-03-28T21:52:15.959Z,2.23
2019-03-28T21:54:44.258Z,2.63
2019-03-28T21:57:14.622Z,2.97
2019-03-28T21:59:42.620Z,2.50
2019-03-28T22:02:10.963Z,3.30
2019-03-28T22:04:39.257Z,3.80
2019-03-28T22:07:07.608Z,2.73
2019-03-28T22:09:35.912Z,2.80
2019-03-28T22:12:04.415Z,2.70
2019-03-28T22:14:32.705Z,2.50
2019-03-28T22:17:01.058Z,2.03
2019-03-28T22:19:29.347Z,2.43
2019-03-28T22:21:57.625Z,2.27
2019-03-28T22:24:25.925Z,3.33
2019-03-28T22:26:54.213Z,3.00
2019-03-28T22:29:22.511Z,2.23
2019-03-28T22:31:50.779Z,2.43
2019-03-28T22:34:19.075Z,2.20
2019-03-28T22:36:57.356Z,2.80
2019-03-28T22:39:17.357Z,2.23
2019-03-28T22:41:45.721Z,2.83
2019-03-28T22:44:14.391Z,1.70
2019-03-28T22:46:42.772Z,2.00
2019-03-28T22:49:11.123Z,2.47
2019-03-28T22:51:39.421Z,2.13
2019-03-28T22:54:07.697Z,2.47
2019-03-28T22:56:35.985Z,2.73
2019-03-28T22:59:04.262Z,2.77
2019-03-28T23:01:32.551Z,2.10
2019-03-28T23:04:00.907Z,2.47
2019-03-28T23:06:29.259Z,2.57
2019-03-28T23:08:58.813Z,2.63
2019-03-28T23:11:27.165Z,2.37
2019-03-28T23:13:55.452Z,2.37
2019-03-28T23:16:23.743Z,2.87
2019-03-28T23:18:52.061Z,2.50
2019-03-28T23:21:20.394Z,2.30
2019-03-28T23:23:48.686Z,2.53
2019-03-28T23:26:16.968Z,2.67
2019-03-28T23:28:45.258Z,2.47
2019-03-28T23:31:13.530Z,2.20
2019-03-28T23:33:41.825Z,2.30
2019-03-28T23:36:10.093Z,2.20
2019-03-28T23:38:38.392Z,2.30
2019-03-28T23:41:06.740Z,2.43
2019-03-28T23:43:35.884Z,2.10
2019-03-28T23:46:04.487Z,1.93
2019-03-28T23:48:32.760Z,3.43
2019-03-28T23:51:01.057Z,2.23
2019-03-28T23:53:29.353Z,2.20
2019-03-28T23:55:57.744Z,2.10
2019-03-28T23:58:26.100Z,3.30
